Time;durP1;ratioP1;P1;durP2;ratioP2;P2;SDS_P1;SDS_P2;PMS_P1;PMS_P2;Temp;Humidity;BMP_temperature;BMP_pressure;BME280_temperature;BME280_humidity;BME280_pressure;Samples;Min_cycle;Max_cycle;Signal;HPM_P1;HPM_P2
2023/01/10 00:02:35;;;;;;;12.15;7.22;;;;;;;4.97;81.60;99777.34;10502527;28;20067;-77
2023/01/10 00:07:38;;;;;;;12.02;6.30;;;;;;;4.87;82.18;99800.22;10504660;28;20076;-77
2023/01/10 00:18:02;;;;;;;12.95;5.22;;;;;;;4.68;82.06;99815.69;10502816;28;20052;-78
2023/01/10 00:23:05;;;;;;;8.02;4.90;;;;;;;4.66;82.12;99820.25;10502815;28;20120;-78
2023/01/10 00:28:18;;;;;;;9.10;5.38;;;;;;;4.60;81.98;99834.81;10502204;28;20044;-78
2023/01/10 00:33:23;;;;;;;10.02;3.50;;;;;;;4.38;82.79;99843.31;10498752;28;20056;-78
2023/01/10 00:38:26;;;;;;;7.57;3.90;;;;;;;4.21;84.57;99862.16;10501074;28;20045;-78
2023/01/10 00:48:51;;;;;;;10.40;3.50;;;;;;;4.06;84.01;99896.72;10500997;28;20040;-77
2023/01/10 00:53:54;;;;;;;5.28;2.65;;;;;;;4.15;82.60;99893.47;10496331;28;20478;-78
2023/01/10 00:58:57;;;;;;;6.13;1.90;;;;;;;3.63;84.71;99904.63;10500899;28;20481;-78
2023/01/10 01:04:01;;;;;;;7.07;3.08;;;;;;;4.29;81.82;99924.53;10500470;28;20128;-78
2023/01/10 01:09:04;;;;;;;7.03;2.53;;;;;;;3.94;82.54;99953.25;10500176;28;20132;-77
2023/01/10 01:14:06;;;;;;;4.95;2.47;;;;;;;4.34;82.58;99953.50;10500187;28;20072;-78
2023/01/10 01:19:11;;;;;;;3.33;2.22;;;;;;;4.27;83.12;99970.78;10498730;28;20144;-78
2023/01/10 01:24:14;;;;;;;4.43;1.85;;;;;;;4.31;82.98;99980.28;10499174;28;20090;-77
2023/01/10 01:29:16;;;;;;;6.40;2.22;;;;;;;4.47;81.78;99990.81;10499497;28;20037;-78
2023/01/10 01:34:21;;;;;;;3.47;1.95;;;;;;;4.27;82.61;99998.22;10498605;28;20119;-78
2023/01/10 01:39:24;;;;;;;7.72;3.13;;;;;;;4.04;84.30;100014.72;10498098;28;20052;-77
2023/01/10 01:44:31;;;;;;;16.05;3.80;;;;;;;4.50;83.21;100026.06;10498616;28;20076;-77
2023/01/10 01:49:40;;;;;;;6.95;3.17;;;;;;;4.05;86.63;100043.00;10501541;28;20072;-77
2023/01/10 01:54:42;;;;;;;8.20;4.50;;;;;;;4.11;86.70;100054.13;10497131;28;20059;-77
2023/01/10 01:59:48;;;;;;;8.68;3.92;;;;;;;4.00;88.08;100050.38;10499325;28;20068;-77
2023/01/10 02:04:54;;;;;;;16.52;4.60;;;;;;;3.94;88.05;100071.03;10499238;28;20492;-77
2023/01/10 02:10:01;;;;;;;7.32;3.55;;;;;;;3.68;92.31;100067.25;10498487;28;20037;-77
2023/01/10 02:15:04;;;;;;;7.10;3.33;;;;;;;3.46;92.65;100082.72;10498913;28;20047;-77
2023/01/10 02:20:12;;;;;;;11.70;5.00;;;;;;;3.56;90.57;100088.34;10496827;28;20565;-77
2023/01/10 02:25:46;;;;;;;15.88;6.25;;;;;;;3.85;90.02;100092.84;10500641;28;20080;-76
2023/01/10 02:31:10;;;;;;;19.48;9.35;;;;;;;4.15;90.25;100100.00;10491972;28;20574;-77
2023/01/10 02:36:36;;;;;;;31.25;10.90;;;;;;;4.06;89.98;100112.03;10507773;28;20063;-78
2023/01/10 02:41:45;;;;;;;25.75;10.50;;;;;;;4.16;88.43;100129.13;10502029;28;20041;-78
2023/01/10 02:46:49;;;;;;;23.23;7.78;;;;;;;3.96;88.95;100124.13;10503326;28;20128;-76
2023/01/10 02:51:53;;;;;;;27.92;11.55;;;;;;;3.87;88.61;100117.53;10501747;28;20131;-76
2023/01/10 02:57:14;;;;;;;30.23;12.20;;;;;;;3.99;88.59;100131.91;10501617;28;20075;-79
2023/01/10 03:02:26;;;;;;;24.35;8.55;;;;;;;4.06;88.04;100129.75;10501416;28;20123;-79
2023/01/10 03:07:37;;;;;;;21.90;7.00;;;;;;;4.08;87.11;100135.84;10501333;28;20131;-78
2023/01/10 03:12:45;;;;;;;28.20;10.50;;;;;;;4.31;86.13;100139.84;10500088;28;20042;-76
2023/01/10 03:17:52;;;;;;;28.40;10.10;;;;;;;4.19;85.67;100144.03;10500911;28;20074;-76
2023/01/10 03:22:56;;;;;;;23.10;9.85;;;;;;;4.12;85.35;100162.16;10500183;28;20100;-76
2023/01/10 03:28:05;;;;;;;25.77;9.60;;;;;;;4.40;85.09;100165.88;10500039;28;20430;-78
2023/01/10 03:33:10;;;;;;;22.70;9.17;;;;;;;4.25;84.67;100172.06;10523324;22;20119;-81
2023/01/10 03:38:21;;;;;;;23.83;9.02;;;;;;;4.26;84.42;100181.78;10419165;28;20088;-79
2023/01/10 03:48:53;;;;;;;19.55;7.55;;;;;;;3.87;85.00;100209.69;10422345;28;20077;-81
2023/01/10 03:53:59;;;;;;;17.48;6.85;;;;;;;4.14;83.81;100229.41;10421079;28;20112;-80
2023/01/10 03:59:02;;;;;;;19.25;6.80;;;;;;;4.05;84.29;100226.41;10423059;28;20068;-81
2023/01/10 04:04:05;;;;;;;22.80;7.68;;;;;;;4.15;83.76;100236.44;10421604;28;20045;-81
2023/01/10 04:09:09;;;;;;;12.75;4.10;;;;;;;4.11;83.30;100237.56;10420601;28;20516;-81
2023/01/10 04:14:12;;;;;;;9.73;4.18;;;;;;;4.17;82.61;100245.19;10420670;28;20065;-80
2023/01/10 04:19:15;;;;;;;23.45;6.18;;;;;;;3.98;82.98;100252.47;10418739;28;20050;-80
2023/01/10 04:24:19;;;;;;;17.77;5.80;;;;;;;4.35;81.65;100261.88;10419089;28;20128;-80
2023/01/10 04:29:22;;;;;;;15.73;5.50;;;;;;;4.08;83.52;100274.06;10420195;28;20092;-80
2023/01/10 04:34:25;;;;;;;15.82;4.72;;;;;;;3.98;84.05;100271.09;10419944;28;20069;-81
2023/01/10 04:39:29;;;;;;;16.55;6.00;;;;;;;4.48;82.02;100279.81;10419658;28;20129;-80
2023/01/10 04:44:32;;;;;;;25.35;7.40;;;;;;;4.23;82.41;100270.56;10426565;28;20077;-82
2023/01/10 04:49:34;;;;;;;18.30;5.85;;;;;;;3.97;83.17;100282.63;10417675;28;20127;-81
2023/01/10 04:54:39;;;;;;;20.23;6.72;;;;;;;3.91;82.78;100290.97;10419608;28;20092;-81
2023/01/10 04:59:41;;;;;;;24.55;5.90;;;;;;;3.91;83.26;100298.94;10414802;28;20521;-82
2023/01/10 05:04:44;;;;;;;25.40;5.88;;;;;;;4.15;82.39;100300.22;10415614;28;20418;-81
2023/01/10 05:09:48;;;;;;;18.70;5.70;;;;;;;4.27;82.13;100317.28;10412685;28;20140;-80
2023/01/10 05:14:51;;;;;;;22.90;5.93;;;;;;;4.20;82.15;100315.06;10416256;28;20072;-79
2023/01/10 05:19:54;;;;;;;24.90;7.63;;;;;;;4.58;81.44;100329.75;10416322;28;20045;-81
2023/01/10 05:24:58;;;;;;;21.83;7.97;;;;;;;4.28;82.83;100339.41;10425785;28;20056;-81
2023/01/10 05:30:01;;;;;;;24.42;8.85;;;;;;;4.54;81.55;100351.28;10425455;28;20095;-81
2023/01/10 05:35:04;;;;;;;19.33;7.85;;;;;;;4.45;81.46;100357.97;10426188;28;20065;-80
2023/01/10 05:40:10;;;;;;;26.75;7.15;;;;;;;4.44;80.79;100356.25;10425075;28;20045;-81
2023/01/10 05:45:13;;;;;;;13.05;4.85;;;;;;;4.19;81.58;100375.34;10424242;28;20559;-80
2023/01/10 05:50:16;;;;;;;20.88;8.40;;;;;;;4.36;80.22;100371.78;10424902;28;20065;-80
2023/01/10 05:55:22;;;;;;;34.80;8.90;;;;;;;4.30;80.70;100391.56;10431238;28;20025;-77
2023/01/10 06:00:25;;;;;;;23.67;7.55;;;;;;;4.63;79.42;100388.00;10446920;28;20057;-79
2023/01/10 06:05:28;;;;;;;15.90;7.75;;;;;;;4.43;79.75;100404.22;10458103;28;20076;-79
2023/01/10 06:10:32;;;;;;;14.50;7.80;;;;;;;4.29;80.92;100413.81;10430757;28;20072;-78
2023/01/10 06:15:36;;;;;;;20.17;9.38;;;;;;;4.52;79.86;100415.19;10443833;28;20057;-80
2023/01/10 06:20:39;;;;;;;15.02;6.15;;;;;;;4.58;78.76;100401.56;10429406;28;20045;-79
2023/01/10 06:25:43;;;;;;;21.27;7.90;;;;;;;4.31;80.26;100419.91;10440707;28;20073;-81
2023/01/10 06:30:46;;;;;;;20.80;6.90;;;;;;;4.15;80.68;100430.50;10424099;28;20162;-80
2023/01/10 06:35:48;;;;;;;23.58;10.70;;;;;;;4.18;81.33;100434.81;10425877;28;20127;-81
2023/01/10 06:40:53;;;;;;;23.90;11.48;;;;;;;4.64;79.51;100439.44;10430585;28;20034;-79
2023/01/10 06:45:55;;;;;;;20.13;8.57;;;;;;;4.34;80.13;100472.06;10438752;28;20152;-81
2023/01/10 06:50:58;;;;;;;18.35;7.65;;;;;;;4.28;79.95;100469.72;10424979;28;20037;-80
2023/01/10 06:56:04;;;;;;;23.10;10.70;;;;;;;4.53;79.75;100479.94;10430501;28;20049;-79
2023/01/10 07:01:13;;;;;;;25.13;12.30;;;;;;;4.64;79.41;100485.53;10442372;28;20053;-77
2023/01/10 07:06:16;;;;;;;27.92;12.63;;;;;;;4.82;78.86;100483.63;10435140;28;20133;-82
2023/01/10 07:11:20;;;;;;;31.33;13.00;;;;;;;4.65;79.26;100491.69;10425696;28;20052;-80
2023/01/10 07:16:23;;;;;;;23.58;10.48;;;;;;;4.83;78.41;100499.53;10426709;28;20498;-80
2023/01/10 07:21:26;;;;;;;32.03;12.88;;;;;;;4.80;78.30;100507.69;10426258;28;20099;-79
2023/01/10 07:26:30;;;;;;;27.63;12.13;;;;;;;4.75;78.55;100508.88;10426145;28;20037;-79
2023/01/10 07:31:33;;;;;;;37.33;13.90;;;;;;;4.71;78.47;100508.16;10424345;28;20037;-80
2023/01/10 07:36:37;;;;;;;30.60;13.20;;;;;;;4.56;79.38;100514.34;10424189;28;20571;-81
2023/01/10 07:41:42;;;;;;;24.02;10.57;;;;;;;4.52;79.38;100532.25;10419649;28;20506;-80
2023/01/10 07:46:50;;;;;;;26.33;12.38;;;;;;;4.60;79.28;100530.03;10401570;28;20136;-80
2023/01/10 07:51:53;;;;;;;28.33;12.68;;;;;;;4.66;78.54;100526.19;10423136;28;20099;-79
2023/01/10 07:56:57;;;;;;;26.88;14.07;;;;;;;4.29;79.77;100548.59;10422805;28;20076;-79
2023/01/10 08:02:00;;;;;;;38.80;14.35;;;;;;;4.65;78.37;100536.94;10422261;28;20045;-79
2023/01/10 08:07:03;;;;;;;30.67;14.82;;;;;;;4.57;78.77;100545.31;10420590;28;20413;-80
2023/01/10 08:12:07;;;;;;;34.42;15.07;;;;;;;4.96;77.18;100541.44;10421123;28;20072;-80
2023/01/10 08:17:10;;;;;;;29.65;13.75;;;;;;;4.80;77.80;100546.72;10422158;28;20072;-79
2023/01/10 08:22:13;;;;;;;33.95;11.73;;;;;;;4.55;78.96;100560.50;10420739;28;20119;-79
2023/01/10 08:27:17;;;;;;;22.05;10.05;;;;;;;4.55;79.15;100571.13;10426908;28;20050;-76
2023/01/10 08:32:21;;;;;;;26.88;8.70;;;;;;;4.59;79.09;100576.22;10421234;28;20041;-78
2023/01/10 08:37:24;;;;;;;25.10;10.27;;;;;;;4.52;79.37;100590.78;10410159;28;20037;-79
2023/01/10 08:42:28;;;;;;;34.47;14.90;;;;;;;4.50;79.32;100587.38;10412588;28;20160;-80
2023/01/10 08:47:31;;;;;;;31.05;12.52;;;;;;;4.47;79.54;100607.94;10413074;28;20036;-78
2023/01/10 08:52:34;;;;;;;31.30;12.73;;;;;;;4.56;79.30;100591.50;10408607;28;20490;-79
2023/01/10 08:57:38;;;;;;;29.25;14.68;;;;;;;4.27;80.01;100604.50;10406486;28;20134;-78
2023/01/10 09:02:41;;;;;;;28.67;13.93;;;;;;;4.17;80.25;100609.44;10409022;28;20034;-79
2023/01/10 09:07:45;;;;;;;28.23;10.00;;;;;;;4.64;78.44;100612.41;10412851;28;20037;-80
2023/01/10 09:12:54;;;;;;;36.65;12.15;;;;;;;4.67;77.97;100625.53;10405052;28;20148;-78
2023/01/10 09:18:00;;;;;;;34.47;12.00;;;;;;;4.70;77.73;100623.56;10406450;28;20041;-79
2023/01/10 09:23:07;;;;;;;27.45;9.75;;;;;;;4.68;77.38;100629.91;10408790;28;20033;-79
2023/01/10 09:28:11;;;;;;;18.45;7.65;;;;;;;4.66;77.11;100626.44;10407791;28;20052;-78
2023/01/10 09:33:14;;;;;;;21.40;8.20;;;;;;;5.00;76.46;100623.75;10412551;28;20120;-79
2023/01/10 09:38:21;;;;;;;34.05;8.32;;;;;;;5.26;74.66;100616.13;10413909;28;20076;-79
2023/01/10 09:43:35;;;;;;;33.03;10.00;;;;;;;5.53;74.92;100629.72;10481240;22;20051;-77
2023/01/10 09:48:47;;;;;;;27.52;9.60;;;;;;;5.25;75.75;100641.06;10489687;28;20070;-77
2023/01/10 09:53:54;;;;;;;;;;;;;;;5.15;76.22;100653.16;10480004;28;20040;-77
2023/01/10 09:59:03;;;;;;;27.10;9.55;;;;;;;5.39;75.42;100664.28;10471880;28;19968;-77
2023/01/10 10:04:19;;;;;;;31.45;10.45;;;;;;;5.16;76.68;100670.88;10471406;28;20053;-77
2023/01/10 10:09:25;;;;;;;30.60;9.63;;;;;;;5.14;76.17;100656.78;10457112;28;20052;-78
2023/01/10 10:14:51;;;;;;;21.08;7.70;;;;;;;5.31;75.17;100674.50;10478471;28;20061;-76
2023/01/10 10:20:09;;;;;;;34.40;9.30;;;;;;;5.38;75.46;100662.56;10496972;28;20416;-76
2023/01/10 10:25:33;;;;;;;30.83;11.10;;;;;;;5.54;75.44;100655.44;10496869;28;20452;-76
2023/01/10 10:30:51;;;;;;;33.78;9.95;;;;;;;5.45;75.10;100658.59;10477480;28;20094;-77
2023/01/10 10:35:59;;;;;;;25.75;8.32;;;;;;;5.25;74.31;100657.91;10479322;28;20079;-78
2023/01/10 10:41:03;;;;;;;26.90;9.77;;;;;;;5.12;75.86;100654.19;10477561;28;20083;-77
2023/01/10 10:46:09;;;;;;;33.47;9.18;;;;;;;5.54;74.16;100646.56;10477961;28;20566;-78
2023/01/10 10:51:16;;;;;;;28.58;9.05;;;;;;;5.80;72.73;100648.63;10477794;28;20071;-77
2023/01/10 10:56:22;;;;;;;26.02;7.82;;;;;;;5.82;73.57;100656.56;10478601;28;20076;-78
2023/01/10 11:01:27;;;;;;;28.27;9.95;;;;;;;5.71;73.06;100665.16;10477650;28;20044;-77
2023/01/10 11:06:31;;;;;;;26.13;9.70;;;;;;;5.59;73.75;100649.84;10457020;28;20040;-77
2023/01/10 11:11:40;;;;;;;19.50;7.57;;;;;;;5.50;72.96;100664.53;10456931;28;20066;-77
2023/01/10 11:16:44;;;;;;;21.38;7.53;;;;;;;5.54;73.47;100649.25;10461529;28;20623;-77
2023/01/10 11:21:52;;;;;;;30.92;8.85;;;;;;;5.54;73.26;100643.91;10475663;28;20050;-77
2023/01/10 11:26:56;;;;;;;26.38;6.80;;;;;;;5.33;73.79;100641.50;10485122;28;20049;-78
2023/01/10 11:32:09;;;;;;;19.65;7.93;;;;;;;5.69;72.87;100638.59;10476002;28;20037;-78
2023/01/10 11:37:20;;;;;;;30.17;8.90;;;;;;;5.75;72.69;100632.03;10476580;28;20037;-77
2023/01/10 11:42:29;;;;;;;41.85;12.73;;;;;;;5.88;71.63;100638.41;10455212;28;20075;-76
2023/01/10 11:47:34;;;;;;;30.88;8.88;;;;;;;5.94;71.74;100640.69;10455496;28;20045;-77
2023/01/10 11:52:48;;;;;;;30.95;8.52;;;;;;;5.84;71.87;100630.66;10454623;28;20121;-77
2023/01/10 11:57:58;;;;;;;26.80;7.80;;;;;;;6.12;70.98;100625.47;10491059;28;20072;-76
2023/01/10 12:03:13;;;;;;;31.30;8.73;;;;;;;7.00;68.94;100612.19;10475293;28;20049;-76
2023/01/10 12:08:25;;;;;;;20.75;7.90;;;;;;;7.14;67.40;100614.00;10474896;28;20135;-76
2023/01/10 12:13:29;;;;;;;23.85;6.95;;;;;;;6.55;67.46;100611.34;10474345;28;20053;-77
2023/01/10 12:18:33;;;;;;;20.05;5.90;;;;;;;6.07;69.51;100614.19;10474910;28;20072;-76
2023/01/10 12:23:40;;;;;;;32.42;7.45;;;;;;;6.91;67.39;100613.63;10476442;28;20548;-75
2023/01/10 12:28:50;;;;;;;16.27;5.70;;;;;;;7.09;66.57;100618.75;10474049;28;20052;-77
2023/01/10 12:34:01;;;;;;;36.58;7.72;;;;;;;6.36;68.83;100628.50;10473700;28;20044;-77
2023/01/10 12:39:15;;;;;;;20.38;6.93;;;;;;;5.90;70.17;100617.84;10474570;28;20040;-76
2023/01/10 12:44:26;;;;;;;26.48;6.45;;;;;;;5.97;69.91;100617.47;10473529;28;20040;-77
2023/01/10 12:49:35;;;;;;;19.50;6.18;;;;;;;6.20;68.49;100618.78;10475439;28;20065;-76
2023/01/10 12:54:38;;;;;;;17.20;5.50;;;;;;;6.29;68.16;100624.47;10474196;28;20044;-77
2023/01/10 12:59:45;;;;;;;20.23;5.30;;;;;;;6.28;67.94;100640.53;10472945;28;20068;-76
2023/01/10 13:04:53;;;;;;;18.20;4.13;;;;;;;6.05;68.53;100625.91;10473087;28;20068;-76
2023/01/10 13:09:56;;;;;;;19.27;5.25;;;;;;;6.04;67.84;100613.53;10473583;28;20045;-76
2023/01/10 13:15:05;;;;;;;24.88;5.43;;;;;;;6.06;67.52;100614.28;10480589;28;20513;-76
2023/01/10 13:20:35;;;;;;;16.20;5.40;;;;;;;6.25;67.49;100598.03;10473966;28;20124;-77
2023/01/10 13:25:38;;;;;;;17.40;4.45;;;;;;;6.53;66.05;100591.94;10472564;28;20075;-77
2023/01/10 13:30:41;;;;;;;21.70;4.30;;;;;;;6.27;66.69;100589.00;10471927;28;20059;-78
2023/01/10 13:35:47;;;;;;;18.70;5.55;;;;;;;6.69;65.85;100582.03;10472449;28;20124;-77
2023/01/10 13:40:59;;;;;;;24.45;5.45;;;;;;;6.18;66.79;100578.88;10471514;28;20045;-76
2023/01/10 13:46:33;;;;;;;13.25;4.38;;;;;;;6.11;66.08;100557.03;10497504;28;20067;-77
2023/01/10 13:51:39;;;;;;;20.23;4.25;;;;;;;6.10;67.09;100570.47;10499438;28;20037;-78
2023/01/10 13:56:43;;;;;;;19.95;4.15;;;;;;;6.29;66.28;100581.75;10480900;28;20508;-77
2023/01/10 14:07:21;;;;;;;23.13;4.78;;;;;;;6.48;65.62;100567.31;10460829;28;20052;-78
2023/01/10 14:12:28;;;;;;;20.52;4.40;;;;;;;6.38;65.92;100569.69;10460136;28;20846;-76
2023/01/10 14:17:33;;;;;;;13.15;3.28;;;;;;;6.14;65.76;100564.00;10463400;28;20547;-77
2023/01/10 14:22:39;;;;;;;17.58;3.67;;;;;;;6.17;66.17;100566.47;10479193;28;20466;-77
2023/01/10 14:27:45;;;;;;;23.27;5.97;;;;;;;6.47;65.70;100563.75;10481037;28;20044;-76
2023/01/10 14:32:51;;;;;;;16.50;4.70;;;;;;;6.22;65.49;100553.72;10482063;28;20036;-77
2023/01/10 14:37:57;;;;;;;17.30;3.35;;;;;;;6.23;65.27;100544.78;10481606;28;20461;-77
2023/01/10 14:43:04;;;;;;;13.95;3.03;;;;;;;6.36;64.91;100539.56;10478282;28;20091;-77
2023/01/10 14:48:25;;;;;;;22.73;3.50;;;;;;;6.04;65.86;100537.03;10503491;28;20055;-76
2023/01/10 14:53:30;;;;;;;18.98;3.75;;;;;;;6.14;65.76;100537.31;10516611;28;20124;-76
2023/01/10 14:58:33;;;;;;;20.77;4.80;;;;;;;6.27;65.10;100535.63;10511680;28;20033;-76
2023/01/10 15:03:37;;;;;;;20.27;4.70;;;;;;;6.17;65.09;100530.03;10495050;28;20039;-77
2023/01/10 15:08:41;;;;;;;21.00;4.07;;;;;;;6.10;65.47;100512.66;10504068;28;20045;-77
2023/01/10 15:13:50;;;;;;;15.68;2.90;;;;;;;6.12;65.03;100507.25;10494855;28;20033;-76
2023/01/10 15:18:55;;;;;;;15.23;2.65;;;;;;;6.04;64.94;100518.38;10495641;28;20382;-76
2023/01/10 15:23:59;;;;;;;21.05;3.88;;;;;;;6.06;65.04;100496.91;10496982;28;20390;-75
2023/01/10 15:29:09;;;;;;;9.63;2.88;;;;;;;6.12;64.87;100491.25;10491750;28;20120;-77
2023/01/10 15:34:18;;;;;;;19.83;3.13;;;;;;;6.07;64.77;100485.31;10493049;28;20435;-77
2023/01/10 15:39:25;;;;;;;16.25;3.17;;;;;;;6.10;64.64;100475.31;10476524;28;20041;-78
2023/01/10 15:44:39;;;;;;;17.00;3.33;;;;;;;6.02;64.41;100471.41;10483274;28;20037;-77
2023/01/10 15:49:52;;;;;;;10.77;2.88;;;;;;;5.87;64.32;100468.72;10455581;28;20090;-77
2023/01/10 15:54:56;;;;;;;8.90;1.95;;;;;;;5.71;64.57;100457.25;10456607;28;20080;-77
2023/01/10 16:00:00;;;;;;;13.00;2.63;;;;;;;5.82;64.90;100445.97;10456207;28;20465;-80
2023/01/10 16:05:10;;;;;;;13.00;3.67;;;;;;;5.62;65.07;100444.47;10472530;28;20056;-77
2023/01/10 16:10:20;;;;;;;18.45;3.38;;;;;;;5.94;64.52;100427.38;10437377;28;20132;-78
2023/01/10 16:15:25;;;;;;;14.07;3.10;;;;;;;5.90;64.35;100431.22;10441280;28;20087;-78
2023/01/10 16:20:30;;;;;;;16.33;3.08;;;;;;;5.64;64.76;100421.25;10440451;28;20712;-78
2023/01/10 16:25:38;;;;;;;10.40;2.08;;;;;;;5.67;64.52;100432.56;10441640;28;20541;-78
2023/01/10 16:30:45;;;;;;;19.63;3.35;;;;;;;5.90;63.97;100417.88;10451108;28;20098;-78
2023/01/10 16:35:49;;;;;;;15.38;2.42;;;;;;;5.74;63.78;100401.09;10455648;28;20048;-78
2023/01/10 16:40:57;;;;;;;12.52;2.00;;;;;;;5.82;63.33;100392.63;10457872;28;20540;-79
2023/01/10 16:45:59;;;;;;;15.13;2.92;;;;;;;5.74;63.42;100390.44;10455966;28;20052;-78
2023/01/10 16:51:15;;;;;;;10.52;2.80;;;;;;;5.81;63.01;100370.44;10453917;28;20133;-78
2023/01/10 16:56:23;;;;;;;9.85;2.22;;;;;;;5.53;63.46;100368.59;10457284;28;20070;-78
2023/01/10 17:01:30;;;;;;;12.32;3.60;;;;;;;5.97;62.52;100354.34;10463109;28;20670;-78
2023/01/10 17:06:34;;;;;;;8.90;2.35;;;;;;;5.84;62.63;100345.41;10477924;28;20146;-78
2023/01/10 17:11:41;;;;;;;13.70;3.47;;;;;;;5.84;62.31;100354.28;10438196;28;20139;-78
2023/01/10 17:16:45;;;;;;;15.35;2.78;;;;;;;5.82;61.97;100356.16;10445126;28;20096;-78
2023/01/10 17:21:47;;;;;;;11.05;2.15;;;;;;;5.68;62.25;100340.19;10452373;28;20044;-78
2023/01/10 17:26:52;;;;;;;11.23;2.05;;;;;;;5.76;62.55;100348.56;10453089;28;20045;-78
2023/01/10 17:31:55;;;;;;;14.90;3.08;;;;;;;5.81;62.02;100351.78;10449874;28;20045;-78
2023/01/10 17:36:57;;;;;;;8.60;2.38;;;;;;;5.74;61.86;100337.13;10457994;28;20056;-78
2023/01/10 17:42:02;;;;;;;15.55;2.15;;;;;;;5.79;62.19;100331.50;10460676;28;20052;-78
2023/01/10 17:47:05;;;;;;;14.30;3.05;;;;;;;5.62;62.21;100337.84;10453370;28;20046;-78
2023/01/10 17:52:07;;;;;;;10.73;2.38;;;;;;;5.97;62.90;100340.16;10448923;28;20055;-78
2023/01/10 17:57:13;;;;;;;19.55;2.65;;;;;;;5.37;65.49;100319.84;10454104;28;20132;-78
2023/01/10 18:02:17;;;;;;;12.57;3.08;;;;;;;5.37;66.21;100314.53;10454675;28;20067;-78
2023/01/10 18:07:21;;;;;;;19.60;3.08;;;;;;;5.38;66.42;100289.63;10466778;28;20087;-78
2023/01/10 18:12:25;;;;;;;17.65;2.85;;;;;;;5.15;66.46;100267.88;10471141;28;20044;-78
2023/01/10 18:17:28;;;;;;;10.55;2.63;;;;;;;5.30;65.85;100262.59;10454893;28;20596;-78
2023/01/10 18:27:54;;;;;;;15.82;2.17;;;;;;;5.45;65.36;100238.50;10456049;28;20057;-78
2023/01/10 18:32:57;;;;;;;12.45;2.25;;;;;;;5.65;64.55;100234.63;10444310;28;20084;-78
2023/01/10 18:37:59;;;;;;;10.15;2.85;;;;;;;5.72;64.21;100219.09;10445056;28;20098;-78
2023/01/10 18:43:04;;;;;;;13.80;3.03;;;;;;;5.76;64.54;100225.94;10462752;28;20055;-78
2023/01/10 18:48:06;;;;;;;9.98;2.42;;;;;;;5.48;64.68;100219.66;10457327;28;20157;-78
2023/01/10 18:53:09;;;;;;;18.52;2.85;;;;;;;5.56;64.42;100221.84;10457405;28;20052;-78
2023/01/10 18:58:13;;;;;;;11.48;2.22;;;;;;;5.67;64.57;100222.03;10463638;28;20886;-78
2023/01/10 19:03:17;;;;;;;16.08;2.58;;;;;;;5.72;65.85;100208.41;10459108;28;20074;-78
2023/01/10 19:08:19;;;;;;;18.13;2.40;;;;;;;5.54;68.15;100214.91;10455096;28;20041;-78
2023/01/10 19:13:24;;;;;;;16.13;2.72;;;;;;;5.35;71.40;100201.88;10451861;28;20059;-78
2023/01/10 19:18:27;;;;;;;15.15;2.78;;;;;;;5.03;73.77;100197.59;10468790;28;20056;-77
2023/01/10 19:23:30;;;;;;;6.28;2.33;;;;;;;5.02;75.54;100179.06;10460726;28;20048;-77
2023/01/10 19:28:34;;;;;;;13.50;3.25;;;;;;;4.57;77.28;100171.03;10455316;28;20128;-77
2023/01/10 19:33:37;;;;;;;13.63;3.10;;;;;;;4.55;78.65;100170.31;10444774;28;20167;-78
2023/01/10 19:38:40;;;;;;;14.25;2.75;;;;;;;4.61;79.90;100161.09;10452679;28;20410;-79
2023/01/10 19:43:44;;;;;;;21.80;4.60;;;;;;;4.53;80.52;100158.88;10445323;28;20052;-79
2023/01/10 19:48:47;;;;;;;18.92;2.95;;;;;;;4.63;80.93;100145.88;10443961;28;20052;-79
2023/01/10 19:53:51;;;;;;;15.32;3.05;;;;;;;4.31;81.60;100147.81;10455732;28;20055;-79
2023/01/10 19:58:55;;;;;;;15.75;2.85;;;;;;;4.41;82.25;100122.38;10453269;28;20131;-80
2023/01/10 20:04:00;;;;;;;8.93;2.03;;;;;;;4.42;83.51;100110.78;10442913;28;20084;-80
2023/01/10 20:09:04;;;;;;;15.75;3.75;;;;;;;4.40;83.69;100116.19;10438983;28;20053;-80
2023/01/10 20:14:13;;;;;;;8.45;1.95;;;;;;;4.37;83.50;100104.88;10460878;28;20052;-80
2023/01/10 20:19:16;;;;;;;10.77;3.13;;;;;;;4.28;84.42;100098.31;10461197;28;20187;-80
2023/01/10 20:24:20;;;;;;;14.90;3.42;;;;;;;4.51;83.86;100101.41;10446729;28;20055;-79
2023/01/10 20:29:24;;;;;;;9.82;4.13;;;;;;;4.43;84.03;100099.19;10457469;28;20059;-79
2023/01/10 20:34:28;;;;;;;10.30;3.08;;;;;;;4.61;83.88;100084.78;10464437;28;20072;-79
2023/01/10 20:39:31;;;;;;;12.07;3.97;;;;;;;4.53;84.26;100081.75;10468624;28;20052;-78
2023/01/10 20:44:36;;;;;;;11.85;2.35;;;;;;;4.37;84.42;100062.34;10467901;28;20045;-79
2023/01/10 20:49:38;;;;;;;8.68;2.55;;;;;;;4.59;84.00;100046.78;10463717;28;20056;-77
2023/01/10 20:54:41;;;;;;;10.95;3.20;;;;;;;4.57;84.48;100040.69;10444876;28;20516;-80
2023/01/10 20:59:45;;;;;;;9.48;3.60;;;;;;;4.64;84.19;100030.53;10444685;28;20576;-77
2023/01/10 21:04:48;;;;;;;9.02;2.00;;;;;;;4.49;84.07;100034.97;10421196;28;21225;-78
2023/01/10 21:09:52;;;;;;;11.27;2.72;;;;;;;4.75;83.71;100027.22;10461659;28;20089;-79
2023/01/10 21:14:56;;;;;;;9.05;2.38;;;;;;;4.70;83.87;100023.97;10459625;28;20048;-77
2023/01/10 21:19:59;;;;;;;9.48;2.65;;;;;;;4.87;83.04;100007.81;10457344;28;20064;-80
2023/01/10 21:25:02;;;;;;;10.38;2.58;;;;;;;4.96;82.52;100007.22;10453373;28;20410;-77
2023/01/10 21:30:09;;;;;;;4.47;1.75;;;;;;;4.67;81.83;100001.09;10441210;28;20149;-80
2023/01/10 21:35:12;;;;;;;5.47;1.50;;;;;;;4.87;81.32;99981.19;10471708;28;20094;-79
2023/01/10 21:40:15;;;;;;;2.45;1.20;;;;;;;4.82;80.60;99984.13;10446368;28;20194;-79
2023/01/10 21:45:19;;;;;;;4.20;1.35;;;;;;;4.82;79.63;99978.81;10446679;28;20179;-78
2023/01/10 21:50:22;;;;;;;3.70;1.52;;;;;;;4.97;79.50;99984.97;10457238;28;20041;-79
2023/01/10 21:55:26;;;;;;;3.88;1.30;;;;;;;5.13;78.74;99974.25;10444246;28;20052;-79
2023/01/10 22:00:30;;;;;;;1.45;0.60;;;;;;;4.93;79.34;99974.63;10439925;28;20121;-79
2023/01/10 22:05:33;;;;;;;3.72;0.88;;;;;;;5.01;80.41;99967.88;10450938;28;20053;-79
2023/01/10 22:10:36;;;;;;;2.08;0.88;;;;;;;4.54;84.20;99976.19;10451756;28;20053;-79
2023/01/10 22:15:42;;;;;;;1.25;0.68;;;;;;;4.70;84.28;99958.31;10453966;28;20056;-80
2023/01/10 22:20:45;;;;;;;2.85;1.10;;;;;;;4.58;85.41;99937.78;10452022;28;20102;-79
2023/01/10 22:25:57;;;;;;;3.58;1.17;;;;;;;4.58;86.19;99949.31;10456273;28;20047;-78
2023/01/10 22:31:02;;;;;;;;;;;;;;;4.68;85.13;99941.59;10442687;28;20055;-79
2023/01/10 22:36:05;;;;;;;3.92;0.52;;;;;;;4.57;84.84;99955.56;10448469;28;19975;-79
2023/01/10 22:41:09;;;;;;;2.60;1.05;;;;;;;5.01;83.93;99914.63;10457633;28;21183;-80
2023/01/10 22:46:15;;;;;;;1.13;0.65;;;;;;;4.75;84.78;99915.47;10451358;28;20116;-79
2023/01/10 22:51:19;;;;;;;2.63;1.00;;;;;;;4.97;83.39;99899.81;10453976;28;20059;-79
2023/01/10 22:56:24;;;;;;;0.60;0.50;;;;;;;4.83;83.46;99897.19;10456998;28;20057;-79
2023/01/10 23:01:28;;;;;;;4.10;0.90;;;;;;;5.18;82.03;99892.22;10436822;28;20103;-79
2023/01/10 23:06:31;;;;;;;2.25;1.05;;;;;;;4.96;81.71;99878.59;10451632;28;20048;-79
2023/01/10 23:11:34;;;;;;;1.13;0.75;;;;;;;5.13;80.52;99877.50;10454698;28;20067;-79
2023/01/10 23:16:38;;;;;;;1.38;0.57;;;;;;;5.53;79.36;99869.50;10449587;28;20049;-79
2023/01/10 23:21:41;;;;;;;0.93;0.45;;;;;;;5.70;78.60;99858.53;10453865;28;20049;-79
2023/01/10 23:26:44;;;;;;;1.02;0.93;;;;;;;5.61;78.88;99859.19;10451496;28;20048;-79
2023/01/10 23:31:48;;;;;;;0.70;0.50;;;;;;;5.70;79.12;99840.75;10450439;28;20044;-79
2023/01/10 23:36:51;;;;;;;0.73;0.30;;;;;;;5.80;79.00;99829.44;10453056;28;20059;-79
2023/01/10 23:41:54;;;;;;;0.98;0.50;;;;;;;5.81;79.64;99832.00;10449687;28;20752;-79
2023/01/10 23:46:58;;;;;;;0.35;0.25;;;;;;;5.51;80.39;99842.97;10464293;28;20040;-78
2023/01/10 23:52:01;;;;;;;3.15;0.70;;;;;;;5.60;81.52;99838.84;10462599;28;20068;-79
2023/01/10 23:57:04;;;;;;;1.75;0.80;;;;;;;5.45;84.00;99846.06;10452262;28;20377;-78
